sensor_id;sensor_type;location;lat;lon;timestamp;temperature;humidity
25468;DHT22;13384;24.794;110.498;2022-12-24T00:01:10;12.50;94.00
25468;DHT22;13384;24.794;110.498;2022-12-24T00:03:54;12.50;94.00
25468;DHT22;13384;24.794;110.498;2022-12-24T00:06:25;12.50;94.00
25468;DHT22;13384;24.794;110.498;2022-12-24T00:09:08;12.50;94.10
25468;DHT22;13384;24.794;110.498;2022-12-24T00:11:59;12.50;94.30
25468;DHT22;13384;24.794;110.498;2022-12-24T00:14:42;12.50;94.10
25468;DHT22;13384;24.794;110.498;2022-12-24T00:17:25;12.50;94.10
25468;DHT22;13384;24.794;110.498;2022-12-24T00:19:56;12.50;94.10
25468;DHT22;13384;24.794;110.498;2022-12-24T00:22:26;12.50;94.10
25468;DHT22;13384;24.794;110.498;2022-12-24T00:25:18;12.50;94.00
25468;DHT22;13384;24.794;110.498;2022-12-24T00:28:01;12.50;94.00
25468;DHT22;13384;24.794;110.498;2022-12-24T00:30:47;12.50;94.10
25468;DHT22;13384;24.794;110.498;2022-12-24T00:33:36;12.50;94.10
25468;DHT22;13384;24.794;110.498;2022-12-24T00:36:20;12.50;94.10
25468;DHT22;13384;24.794;110.498;2022-12-24T00:39:17;12.50;94.10
25468;DHT22;13384;24.794;110.498;2022-12-24T00:42:07;12.50;94.10
25468;DHT22;13384;24.794;110.498;2022-12-24T00:44:50;12.60;94.10
25468;DHT22;13384;24.794;110.498;2022-12-24T00:47:36;12.50;93.90
25468;DHT22;13384;24.794;110.498;2022-12-24T00:50:39;12.50;94.00
25468;DHT22;13384;24.794;110.498;2022-12-24T00:53:37;12.60;94.00
25468;DHT22;13384;24.794;110.498;2022-12-24T00:56:21;12.60;94.00
25468;DHT22;13384;24.794;110.498;2022-12-24T00:59:07;12.50;94.00
25468;DHT22;13384;24.794;110.498;2022-12-24T01:01:38;12.60;93.90
25468;DHT22;13384;24.794;110.498;2022-12-24T01:04:21;12.60;93.90
25468;DHT22;13384;24.794;110.498;2022-12-24T01:07:10;12.60;93.90
25468;DHT22;13384;24.794;110.498;2022-12-24T01:09:43;12.60;93.90
25468;DHT22;13384;24.794;110.498;2022-12-24T01:12:26;12.60;93.90
25468;DHT22;13384;24.794;110.498;2022-12-24T01:15:11;12.60;93.80
25468;DHT22;13384;24.794;110.498;2022-12-24T01:17:55;12.60;93.80
25468;DHT22;13384;24.794;110.498;2022-12-24T01:20:40;12.60;93.80
25468;DHT22;13384;24.794;110.498;2022-12-24T01:23:23;12.60;93.80
25468;DHT22;13384;24.794;110.498;2022-12-24T01:26:07;12.60;93.80
25468;DHT22;13384;24.794;110.498;2022-12-24T01:28:53;12.70;93.90
25468;DHT22;13384;24.794;110.498;2022-12-24T01:31:26;12.70;93.80
25468;DHT22;13384;24.794;110.498;2022-12-24T01:33:57;12.70;93.90
25468;DHT22;13384;24.794;110.498;2022-12-24T01:36:46;12.70;93.80
25468;DHT22;13384;24.794;110.498;2022-12-24T01:39:29;12.70;93.80
25468;DHT22;13384;24.794;110.498;2022-12-24T01:42:21;12.70;93.80
25468;DHT22;13384;24.794;110.498;2022-12-24T01:51:41;12.70;93.70
25468;DHT22;13384;24.794;110.498;2022-12-24T01:54:46;12.70;93.70
25468;DHT22;13384;24.794;110.498;2022-12-24T01:57:35;12.70;93.70
25468;DHT22;13384;24.794;110.498;2022-12-24T02:00:19;12.70;93.50
25468;DHT22;13384;24.794;110.498;2022-12-24T02:03:11;12.70;93.60
25468;DHT22;13384;24.794;110.498;2022-12-24T02:06:00;12.70;93.60
25468;DHT22;13384;24.794;110.498;2022-12-24T02:08:32;12.70;93.60
25468;DHT22;13384;24.794;110.498;2022-12-24T02:11:16;12.70;93.60
25468;DHT22;13384;24.794;110.498;2022-12-24T02:13:57;12.70;93.50
25468;DHT22;13384;24.794;110.498;2022-12-24T02:17:07;12.70;93.40
25468;DHT22;13384;24.794;110.498;2022-12-24T02:29:02;12.80;93.40
25468;DHT22;13384;24.794;110.498;2022-12-24T02:35:29;12.80;93.40
25468;DHT22;13384;24.794;110.498;2022-12-24T02:38:05;12.80;93.70
25468;DHT22;13384;24.794;110.498;2022-12-24T02:41:00;12.80;93.40
25468;DHT22;13384;24.794;110.498;2022-12-24T02:43:35;12.80;93.60
25468;DHT22;13384;24.794;110.498;2022-12-24T02:46:18;12.80;93.30
25468;DHT22;13384;24.794;110.498;2022-12-24T02:48:55;12.80;93.10
25468;DHT22;13384;24.794;110.498;2022-12-24T02:51:41;12.80;93.10
25468;DHT22;13384;24.794;110.498;2022-12-24T02:54:11;12.90;93.20
25468;DHT22;13384;24.794;110.498;2022-12-24T03:00:14;12.90;93.20
25468;DHT22;13384;24.794;110.498;2022-12-24T03:05:27;12.90;93.20
25468;DHT22;13384;24.794;110.498;2022-12-24T03:11:14;12.90;93.10
25468;DHT22;13384;24.794;110.498;2022-12-24T03:13:45;12.90;93.10
25468;DHT22;13384;24.794;110.498;2022-12-24T03:16:22;12.90;93.00
25468;DHT22;13384;24.794;110.498;2022-12-24T03:19:06;13.00;93.00
25468;DHT22;13384;24.794;110.498;2022-12-24T03:21:51;13.00;93.10
25468;DHT22;13384;24.794;110.498;2022-12-24T03:24:39;13.00;93.00
25468;DHT22;13384;24.794;110.498;2022-12-24T03:27:12;13.00;93.00
25468;DHT22;13384;24.794;110.498;2022-12-24T03:29:57;13.00;93.00
25468;DHT22;13384;24.794;110.498;2022-12-24T03:32:35;13.00;92.90
25468;DHT22;13384;24.794;110.498;2022-12-24T03:36:24;13.00;92.90
25468;DHT22;13384;24.794;110.498;2022-12-24T03:39:10;13.00;92.90
25468;DHT22;13384;24.794;110.498;2022-12-24T03:41:42;13.00;92.90
25468;DHT22;13384;24.794;110.498;2022-12-24T03:44:17;13.00;92.90
25468;DHT22;13384;24.794;110.498;2022-12-24T03:47:00;13.00;92.90
25468;DHT22;13384;24.794;110.498;2022-12-24T03:49:32;13.10;93.00
25468;DHT22;13384;24.794;110.498;2022-12-24T03:52:19;13.10;92.90
25468;DHT22;13384;24.794;110.498;2022-12-24T03:54:57;13.10;92.90
25468;DHT22;13384;24.794;110.498;2022-12-24T03:57:43;13.10;92.90
25468;DHT22;13384;24.794;110.498;2022-12-24T04:00:27;13.10;92.80
25468;DHT22;13384;24.794;110.498;2022-12-24T04:03:13;13.10;92.90
25468;DHT22;13384;24.794;110.498;2022-12-24T04:06:03;13.10;92.80
25468;DHT22;13384;24.794;110.498;2022-12-24T04:08:47;13.10;92.80
25468;DHT22;13384;24.794;110.498;2022-12-24T04:12:46;13.10;92.80
25468;DHT22;13384;24.794;110.498;2022-12-24T04:15:32;13.10;92.70
25468;DHT22;13384;24.794;110.498;2022-12-24T04:18:01;13.10;92.70
25468;DHT22;13384;24.794;110.498;2022-12-24T04:20:53;13.10;92.70
25468;DHT22;13384;24.794;110.498;2022-12-24T04:23:22;13.10;92.70
25468;DHT22;13384;24.794;110.498;2022-12-24T04:25:51;13.10;92.70
25468;DHT22;13384;24.794;110.498;2022-12-24T04:28:34;13.10;92.70
25468;DHT22;13384;24.794;110.498;2022-12-24T04:31:24;13.10;92.70
25468;DHT22;13384;24.794;110.498;2022-12-24T04:34:13;13.10;92.70
25468;DHT22;13384;24.794;110.498;2022-12-24T04:37:00;13.10;92.70
25468;DHT22;13384;24.794;110.498;2022-12-24T04:39:32;13.10;92.60
25468;DHT22;13384;24.794;110.498;2022-12-24T04:42:23;13.10;92.60
25468;DHT22;13384;24.794;110.498;2022-12-24T04:45:07;13.10;92.60
25468;DHT22;13384;24.794;110.498;2022-12-24T04:47:50;13.10;92.60
25468;DHT22;13384;24.794;110.498;2022-12-24T04:50:21;13.20;92.60
25468;DHT22;13384;24.794;110.498;2022-12-24T04:53:08;13.20;92.60
25468;DHT22;13384;24.794;110.498;2022-12-24T04:55:37;13.20;92.50
25468;DHT22;13384;24.794;110.498;2022-12-24T04:58:05;13.20;92.50
25468;DHT22;13384;24.794;110.498;2022-12-24T05:00:44;13.20;92.60
25468;DHT22;13384;24.794;110.498;2022-12-24T05:03:12;13.20;92.60
25468;DHT22;13384;24.794;110.498;2022-12-24T05:06:03;13.20;92.50
25468;DHT22;13384;24.794;110.498;2022-12-24T05:08:56;13.20;92.50
25468;DHT22;13384;24.794;110.498;2022-12-24T05:11:41;13.20;92.50
25468;DHT22;13384;24.794;110.498;2022-12-24T05:14:40;13.20;92.50
25468;DHT22;13384;24.794;110.498;2022-12-24T05:17:12;13.20;92.40
25468;DHT22;13384;24.794;110.498;2022-12-24T05:19:59;13.20;92.40
25468;DHT22;13384;24.794;110.498;2022-12-24T05:22:42;13.20;92.40
25468;DHT22;13384;24.794;110.498;2022-12-24T05:25:45;13.20;92.40
25468;DHT22;13384;24.794;110.498;2022-12-24T05:28:51;13.20;92.40
25468;DHT22;13384;24.794;110.498;2022-12-24T05:31:35;13.20;92.40
25468;DHT22;13384;24.794;110.498;2022-12-24T05:34:08;13.20;92.40
25468;DHT22;13384;24.794;110.498;2022-12-24T05:36:39;13.20;92.40
25468;DHT22;13384;24.794;110.498;2022-12-24T05:39:26;13.20;92.30
25468;DHT22;13384;24.794;110.498;2022-12-24T05:42:10;13.20;92.30
25468;DHT22;13384;24.794;110.498;2022-12-24T05:44:53;13.20;92.30
25468;DHT22;13384;24.794;110.498;2022-12-24T05:47:24;13.20;92.30
25468;DHT22;13384;24.794;110.498;2022-12-24T05:50:08;13.20;92.30
25468;DHT22;13384;24.794;110.498;2022-12-24T05:52:41;13.20;92.30
25468;DHT22;13384;24.794;110.498;2022-12-24T05:55:32;13.20;92.30
25468;DHT22;13384;24.794;110.498;2022-12-24T05:58:15;13.20;92.30
25468;DHT22;13384;24.794;110.498;2022-12-24T06:00:46;13.20;92.30
25468;DHT22;13384;24.794;110.498;2022-12-24T06:03:32;13.20;92.30
25468;DHT22;13384;24.794;110.498;2022-12-24T06:06:34;13.20;92.30
25468;DHT22;13384;24.794;110.498;2022-12-24T06:09:18;13.30;92.30
25468;DHT22;13384;24.794;110.498;2022-12-24T06:11:51;13.30;92.20
25468;DHT22;13384;24.794;110.498;2022-12-24T06:14:23;13.30;92.20
25468;DHT22;13384;24.794;110.498;2022-12-24T06:16:58;13.30;92.20
25468;DHT22;13384;24.794;110.498;2022-12-24T06:19:33;13.20;92.50
25468;DHT22;13384;24.794;110.498;2022-12-24T06:22:17;13.30;92.20
25468;DHT22;13384;24.794;110.498;2022-12-24T06:25:04;13.30;92.20
25468;DHT22;13384;24.794;110.498;2022-12-24T06:27:48;13.30;92.20
25468;DHT22;13384;24.794;110.498;2022-12-24T06:30:31;13.30;92.20
25468;DHT22;13384;24.794;110.498;2022-12-24T06:33:15;13.30;92.20
25468;DHT22;13384;24.794;110.498;2022-12-24T06:36:00;13.30;92.20
25468;DHT22;13384;24.794;110.498;2022-12-24T06:39:03;13.30;92.20
25468;DHT22;13384;24.794;110.498;2022-12-24T06:41:47;13.30;92.20
25468;DHT22;13384;24.794;110.498;2022-12-24T06:44:31;13.20;92.20
25468;DHT22;13384;24.794;110.498;2022-12-24T06:47:15;13.30;92.20
25468;DHT22;13384;24.794;110.498;2022-12-24T06:49:58;13.30;92.20
25468;DHT22;13384;24.794;110.498;2022-12-24T06:52:35;13.30;92.20
25468;DHT22;13384;24.794;110.498;2022-12-24T06:55:18;13.30;92.20
25468;DHT22;13384;24.794;110.498;2022-12-24T06:58:04;13.30;92.20
25468;DHT22;13384;24.794;110.498;2022-12-24T07:00:48;13.30;92.20
25468;DHT22;13384;24.794;110.498;2022-12-24T07:03:32;13.30;92.20
25468;DHT22;13384;24.794;110.498;2022-12-24T07:06:04;13.30;92.20
25468;DHT22;13384;24.794;110.498;2022-12-24T07:08:35;13.30;92.20
25468;DHT22;13384;24.794;110.498;2022-12-24T07:11:30;13.30;92.20
25468;DHT22;13384;24.794;110.498;2022-12-24T07:14:13;13.30;92.20
25468;DHT22;13384;24.794;110.498;2022-12-24T07:16:57;13.30;92.10
25468;DHT22;13384;24.794;110.498;2022-12-24T07:19:40;13.30;92.10
25468;DHT22;13384;24.794;110.498;2022-12-24T07:22:25;13.30;92.10
25468;DHT22;13384;24.794;110.498;2022-12-24T07:24:53;13.30;92.10
25468;DHT22;13384;24.794;110.498;2022-12-24T07:27:21;13.30;92.20
25468;DHT22;13384;24.794;110.498;2022-12-24T07:29:50;13.30;92.10
25468;DHT22;13384;24.794;110.498;2022-12-24T07:32:27;13.30;92.10
25468;DHT22;13384;24.794;110.498;2022-12-24T07:34:55;13.30;92.10
25468;DHT22;13384;24.794;110.498;2022-12-24T07:37:45;13.30;92.10
25468;DHT22;13384;24.794;110.498;2022-12-24T07:40:13;13.30;92.00
25468;DHT22;13384;24.794;110.498;2022-12-24T07:42:56;13.30;92.00
25468;DHT22;13384;24.794;110.498;2022-12-24T07:45:40;13.40;92.10
25468;DHT22;13384;24.794;110.498;2022-12-24T07:48:26;13.30;92.10
25468;DHT22;13384;24.794;110.498;2022-12-24T07:51:10;13.30;92.10
25468;DHT22;13384;24.794;110.498;2022-12-24T07:53:53;13.30;92.00
25468;DHT22;13384;24.794;110.498;2022-12-24T07:56:43;13.40;92.10
25468;DHT22;13384;24.794;110.498;2022-12-24T07:59:17;13.40;92.40
25468;DHT22;13384;24.794;110.498;2022-12-24T08:02:00;13.30;92.20
25468;DHT22;13384;24.794;110.498;2022-12-24T08:04:50;13.30;92.10
25468;DHT22;13384;24.794;110.498;2022-12-24T08:07:49;13.40;92.10
25468;DHT22;13384;24.794;110.498;2022-12-24T08:10:42;13.40;92.10
25468;DHT22;13384;24.794;110.498;2022-12-24T08:13:29;13.30;92.00
25468;DHT22;13384;24.794;110.498;2022-12-24T08:16:24;13.40;92.10
25468;DHT22;13384;24.794;110.498;2022-12-24T08:20:14;13.40;92.10
25468;DHT22;13384;24.794;110.498;2022-12-24T08:22:44;13.30;92.00
25468;DHT22;13384;24.794;110.498;2022-12-24T08:25:12;13.40;92.10
25468;DHT22;13384;24.794;110.498;2022-12-24T08:27:46;13.30;92.10
25468;DHT22;13384;24.794;110.498;2022-12-24T08:30:15;13.40;92.00
25468;DHT22;13384;24.794;110.498;2022-12-24T08:33:03;13.30;92.00
25468;DHT22;13384;24.794;110.498;2022-12-24T08:35:38;13.40;92.00
25468;DHT22;13384;24.794;110.498;2022-12-24T08:38:06;13.40;92.00
25468;DHT22;13384;24.794;110.498;2022-12-24T08:40:37;13.30;92.00
25468;DHT22;13384;24.794;110.498;2022-12-24T08:43:23;13.40;92.00
25468;DHT22;13384;24.794;110.498;2022-12-24T08:46:04;13.40;92.20
25468;DHT22;13384;24.794;110.498;2022-12-24T08:48:59;13.30;92.00
25468;DHT22;13384;24.794;110.498;2022-12-24T08:51:30;13.40;92.00
25468;DHT22;13384;24.794;110.498;2022-12-24T08:54:03;13.40;92.00
25468;DHT22;13384;24.794;110.498;2022-12-24T08:56:47;13.40;92.00
25468;DHT22;13384;24.794;110.498;2022-12-24T08:59:30;13.40;92.00
25468;DHT22;13384;24.794;110.498;2022-12-24T09:02:18;13.40;92.10
25468;DHT22;13384;24.794;110.498;2022-12-24T09:04:49;13.40;92.10
25468;DHT22;13384;24.794;110.498;2022-12-24T09:07:40;13.40;92.10
25468;DHT22;13384;24.794;110.498;2022-12-24T09:10:11;13.40;92.10
25468;DHT22;13384;24.794;110.498;2022-12-24T09:12:42;13.40;92.10
25468;DHT22;13384;24.794;110.498;2022-12-24T09:15:14;13.40;92.20
25468;DHT22;13384;24.794;110.498;2022-12-24T09:18:01;13.40;92.20
25468;DHT22;13384;24.794;110.498;2022-12-24T09:20:31;13.40;92.20
25468;DHT22;13384;24.794;110.498;2022-12-24T09:23:15;13.30;92.20
25468;DHT22;13384;24.794;110.498;2022-12-24T09:26:08;13.30;92.20
25468;DHT22;13384;24.794;110.498;2022-12-24T09:30:05;13.30;92.20
25468;DHT22;13384;24.794;110.498;2022-12-24T09:32:34;13.40;92.30
25468;DHT22;13384;24.794;110.498;2022-12-24T09:35:02;13.40;92.30
25468;DHT22;13384;24.794;110.498;2022-12-24T09:37:46;13.40;92.30
25468;DHT22;13384;24.794;110.498;2022-12-24T09:40:25;13.40;92.30
25468;DHT22;13384;24.794;110.498;2022-12-24T09:43:19;13.40;92.30
25468;DHT22;13384;24.794;110.498;2022-12-24T09:48:48;13.40;92.30
25468;DHT22;13384;24.794;110.498;2022-12-24T09:51:40;13.40;92.40
25468;DHT22;13384;24.794;110.498;2022-12-24T09:54:33;13.30;92.30
25468;DHT22;13384;24.794;110.498;2022-12-24T09:57:23;13.40;92.40
25468;DHT22;13384;24.794;110.498;2022-12-24T09:59:55;13.40;92.40
25468;DHT22;13384;24.794;110.498;2022-12-24T10:02:36;13.40;92.40
25468;DHT22;13384;24.794;110.498;2022-12-24T10:05:13;13.40;92.40
25468;DHT22;13384;24.794;110.498;2022-12-24T10:10:53;13.40;92.50
25468;DHT22;13384;24.794;110.498;2022-12-24T10:17:05;13.30;92.50
25468;DHT22;13384;24.794;110.498;2022-12-24T10:25:27;13.40;92.50
25468;DHT22;13384;24.794;110.498;2022-12-24T10:28:17;13.40;92.60
25468;DHT22;13384;24.794;110.498;2022-12-24T10:31:07;13.40;92.60
25468;DHT22;13384;24.794;110.498;2022-12-24T10:33:48;13.40;92.60
25468;DHT22;13384;24.794;110.498;2022-12-24T10:36:33;13.30;92.50
25468;DHT22;13384;24.794;110.498;2022-12-24T10:39:22;13.30;92.60
25468;DHT22;13384;24.794;110.498;2022-12-24T10:41:55;13.40;92.70
25468;DHT22;13384;24.794;110.498;2022-12-24T10:44:32;13.40;92.60
25468;DHT22;13384;24.794;110.498;2022-12-24T10:47:25;13.40;92.60
25468;DHT22;13384;24.794;110.498;2022-12-24T10:50:28;13.40;92.60
25468;DHT22;13384;24.794;110.498;2022-12-24T10:54:26;13.30;92.70
25468;DHT22;13384;24.794;110.498;2022-12-24T10:56:57;13.40;92.60
25468;DHT22;13384;24.794;110.498;2022-12-24T10:59:54;13.40;92.70
25468;DHT22;13384;24.794;110.498;2022-12-24T11:02:39;13.40;92.70
25468;DHT22;13384;24.794;110.498;2022-12-24T11:06:29;13.40;92.70
25468;DHT22;13384;24.794;110.498;2022-12-24T11:09:23;13.40;92.70
25468;DHT22;13384;24.794;110.498;2022-12-24T11:12:03;13.40;92.60
25468;DHT22;13384;24.794;110.498;2022-12-24T11:14:36;13.40;92.70
25468;DHT22;13384;24.794;110.498;2022-12-24T11:17:06;13.40;92.70
25468;DHT22;13384;24.794;110.498;2022-12-24T11:19:38;13.40;92.80
25468;DHT22;13384;24.794;110.498;2022-12-24T11:22:29;13.40;92.80
25468;DHT22;13384;24.794;110.498;2022-12-24T11:25:23;13.40;92.80
25468;DHT22;13384;24.794;110.498;2022-12-24T11:28:22;13.30;92.80
25468;DHT22;13384;24.794;110.498;2022-12-24T11:31:26;13.40;92.90
25468;DHT22;13384;24.794;110.498;2022-12-24T11:34:37;13.40;92.80
25468;DHT22;13384;24.794;110.498;2022-12-24T11:37:41;13.30;92.90
25468;DHT22;13384;24.794;110.498;2022-12-24T11:40:23;13.30;92.90
25468;DHT22;13384;24.794;110.498;2022-12-24T11:43:00;13.30;93.00
25468;DHT22;13384;24.794;110.498;2022-12-24T11:45:50;13.30;93.00
25468;DHT22;13384;24.794;110.498;2022-12-24T11:48:32;13.30;93.00
25468;DHT22;13384;24.794;110.498;2022-12-24T11:51:23;13.30;93.00
25468;DHT22;13384;24.794;110.498;2022-12-24T11:54:17;13.30;93.00
25468;DHT22;13384;24.794;110.498;2022-12-24T11:57:06;13.30;93.00
25468;DHT22;13384;24.794;110.498;2022-12-24T11:59:44;13.30;93.00
25468;DHT22;13384;24.794;110.498;2022-12-24T12:02:32;13.30;93.00
25468;DHT22;13384;24.794;110.498;2022-12-24T12:08:19;13.30;93.10
25468;DHT22;13384;24.794;110.498;2022-12-24T12:10:52;13.20;93.10
25468;DHT22;13384;24.794;110.498;2022-12-24T12:13:43;13.20;93.10
25468;DHT22;13384;24.794;110.498;2022-12-24T12:19:54;13.20;93.20
25468;DHT22;13384;24.794;110.498;2022-12-24T12:28:45;13.20;93.30
25468;DHT22;13384;24.794;110.498;2022-12-24T12:34:36;13.20;93.20
25468;DHT22;13384;24.794;110.498;2022-12-24T12:37:34;13.20;93.30
25468;DHT22;13384;24.794;110.498;2022-12-24T12:40:20;13.20;93.30
25468;DHT22;13384;24.794;110.498;2022-12-24T12:43:27;13.20;93.30
25468;DHT22;13384;24.794;110.498;2022-12-24T12:46:36;13.20;93.30
25468;DHT22;13384;24.794;110.498;2022-12-24T12:56:08;13.20;93.30
25468;DHT22;13384;24.794;110.498;2022-12-24T12:59:07;13.20;93.30
25468;DHT22;13384;24.794;110.498;2022-12-24T13:04:28;13.20;93.20
25468;DHT22;13384;24.794;110.498;2022-12-24T13:22:00;13.20;93.30
25468;DHT22;13384;24.794;110.498;2022-12-24T13:24:53;13.20;93.30
25468;DHT22;13384;24.794;110.498;2022-12-24T13:27:37;13.10;93.10
25468;DHT22;13384;24.794;110.498;2022-12-24T13:31:26;13.10;93.20
25468;DHT22;13384;24.794;110.498;2022-12-24T13:33:58;13.10;93.30
25468;DHT22;13384;24.794;110.498;2022-12-24T13:37:18;13.10;93.30
25468;DHT22;13384;24.794;110.498;2022-12-24T13:43:07;13.10;93.20
25468;DHT22;13384;24.794;110.498;2022-12-24T13:45:40;13.10;93.30
25468;DHT22;13384;24.794;110.498;2022-12-24T13:48:31;13.10;93.30
25468;DHT22;13384;24.794;110.498;2022-12-24T13:51:18;13.10;93.30
25468;DHT22;13384;24.794;110.498;2022-12-24T13:53:57;13.10;93.30
25468;DHT22;13384;24.794;110.498;2022-12-24T13:56:31;13.10;93.30
25468;DHT22;13384;24.794;110.498;2022-12-24T13:59:36;13.10;93.40
25468;DHT22;13384;24.794;110.498;2022-12-24T14:02:24;13.10;93.30
25468;DHT22;13384;24.794;110.498;2022-12-24T14:05:06;13.10;93.40
25468;DHT22;13384;24.794;110.498;2022-12-24T14:07:46;13.10;93.40
25468;DHT22;13384;24.794;110.498;2022-12-24T14:11:06;13.10;93.40
25468;DHT22;13384;24.794;110.498;2022-12-24T14:16:27;13.10;93.40
25468;DHT22;13384;24.794;110.498;2022-12-24T14:19:37;13.10;93.40
25468;DHT22;13384;24.794;110.498;2022-12-24T14:22:39;13.10;93.40
25468;DHT22;13384;24.794;110.498;2022-12-24T14:25:21;13.10;93.40
25468;DHT22;13384;24.794;110.498;2022-12-24T14:28:02;13.00;93.40
25468;DHT22;13384;24.794;110.498;2022-12-24T14:30:36;13.00;93.40
25468;DHT22;13384;24.794;110.498;2022-12-24T14:33:35;13.10;93.50
25468;DHT22;13384;24.794;110.498;2022-12-24T14:36:21;13.00;93.50
25468;DHT22;13384;24.794;110.498;2022-12-24T14:38:53;13.00;93.40
25468;DHT22;13384;24.794;110.498;2022-12-24T14:41:42;13.00;93.40
25468;DHT22;13384;24.794;110.498;2022-12-24T14:44:47;13.00;93.50
25468;DHT22;13384;24.794;110.498;2022-12-24T14:54:26;13.00;93.50
25468;DHT22;13384;24.794;110.498;2022-12-24T14:57:21;13.00;93.50
25468;DHT22;13384;24.794;110.498;2022-12-24T15:02:48;13.00;93.60
25468;DHT22;13384;24.794;110.498;2022-12-24T15:05:38;13.00;93.50
25468;DHT22;13384;24.794;110.498;2022-12-24T15:08:22;13.00;93.60
25468;DHT22;13384;24.794;110.498;2022-12-24T15:11:12;13.00;93.50
25468;DHT22;13384;24.794;110.498;2022-12-24T15:13:50;13.00;93.60
25468;DHT22;13384;24.794;110.498;2022-12-24T15:16:31;13.00;93.60
25468;DHT22;13384;24.794;110.498;2022-12-24T15:19:23;13.00;93.60
25468;DHT22;13384;24.794;110.498;2022-12-24T15:21:56;12.90;93.50
25468;DHT22;13384;24.794;110.498;2022-12-24T15:24:48;12.90;93.60
25468;DHT22;13384;24.794;110.498;2022-12-24T15:27:22;12.90;93.60
25468;DHT22;13384;24.794;110.498;2022-12-24T15:30:20;12.90;93.60
25468;DHT22;13384;24.794;110.498;2022-12-24T15:32:56;12.90;93.70
25468;DHT22;13384;24.794;110.498;2022-12-24T15:35:54;12.90;93.80
25468;DHT22;13384;24.794;110.498;2022-12-24T15:38:43;12.90;93.70
25468;DHT22;13384;24.794;110.498;2022-12-24T15:41:39;12.90;93.70
25468;DHT22;13384;24.794;110.498;2022-12-24T15:44:35;12.90;93.70
25468;DHT22;13384;24.794;110.498;2022-12-24T15:47:25;12.90;93.70
25468;DHT22;13384;24.794;110.498;2022-12-24T15:49:58;12.90;93.70
25468;DHT22;13384;24.794;110.498;2022-12-24T15:52:30;12.90;93.70
25468;DHT22;13384;24.794;110.498;2022-12-24T15:55:04;12.80;93.70
25468;DHT22;13384;24.794;110.498;2022-12-24T15:57:51;12.90;93.80
25468;DHT22;13384;24.794;110.498;2022-12-24T16:00:34;12.90;93.80
25468;DHT22;13384;24.794;110.498;2022-12-24T16:03:18;12.90;93.80
25468;DHT22;13384;24.794;110.498;2022-12-24T16:06:10;12.80;93.80
25468;DHT22;13384;24.794;110.498;2022-12-24T16:08:39;12.80;93.80
25468;DHT22;13384;24.794;110.498;2022-12-24T16:12:29;12.90;93.80
25468;DHT22;13384;24.794;110.498;2022-12-24T16:14:59;12.90;93.80
25468;DHT22;13384;24.794;110.498;2022-12-24T16:17:29;12.80;93.70
25468;DHT22;13384;24.794;110.498;2022-12-24T16:20:21;12.80;93.80
25468;DHT22;13384;24.794;110.498;2022-12-24T16:23:13;12.80;93.80
25468;DHT22;13384;24.794;110.498;2022-12-24T16:26:01;12.80;93.80
25468;DHT22;13384;24.794;110.498;2022-12-24T16:28:44;12.80;93.80
25468;DHT22;13384;24.794;110.498;2022-12-24T16:31:31;12.80;93.80
25468;DHT22;13384;24.794;110.498;2022-12-24T16:34:24;12.80;93.80
25468;DHT22;13384;24.794;110.498;2022-12-24T16:37:13;12.80;93.80
25468;DHT22;13384;24.794;110.498;2022-12-24T16:40:17;12.80;93.80
25468;DHT22;13384;24.794;110.498;2022-12-24T16:43:10;12.80;93.90
25468;DHT22;13384;24.794;110.498;2022-12-24T16:46:12;12.80;93.80
25468;DHT22;13384;24.794;110.498;2022-12-24T16:48:46;12.80;93.90
25468;DHT22;13384;24.794;110.498;2022-12-24T16:51:17;12.80;93.90
25468;DHT22;13384;24.794;110.498;2022-12-24T16:53:49;12.80;93.80
25468;DHT22;13384;24.794;110.498;2022-12-24T16:56:39;12.80;93.80
25468;DHT22;13384;24.794;110.498;2022-12-24T16:59:16;12.80;93.80
25468;DHT22;13384;24.794;110.498;2022-12-24T17:03:06;12.80;93.90
25468;DHT22;13384;24.794;110.498;2022-12-24T17:05:38;12.80;93.80
25468;DHT22;13384;24.794;110.498;2022-12-24T17:08:11;12.80;93.80
25468;DHT22;13384;24.794;110.498;2022-12-24T17:10:56;12.80;93.80
25468;DHT22;13384;24.794;110.498;2022-12-24T17:13:27;12.80;93.70
25468;DHT22;13384;24.794;110.498;2022-12-24T17:16:17;12.80;93.80
25468;DHT22;13384;24.794;110.498;2022-12-24T17:19:03;12.80;93.70
25468;DHT22;13384;24.794;110.498;2022-12-24T17:21:47;12.70;93.80
25468;DHT22;13384;24.794;110.498;2022-12-24T17:24:31;12.80;93.70
25468;DHT22;13384;24.794;110.498;2022-12-24T17:27:14;12.80;93.80
25468;DHT22;13384;24.794;110.498;2022-12-24T17:30:05;12.80;93.80
25468;DHT22;13384;24.794;110.498;2022-12-24T17:32:48;12.80;93.80
25468;DHT22;13384;24.794;110.498;2022-12-24T17:35:20;12.70;93.70
25468;DHT22;13384;24.794;110.498;2022-12-24T17:37:52;12.70;93.70
25468;DHT22;13384;24.794;110.498;2022-12-24T17:40:22;12.70;93.80
25468;DHT22;13384;24.794;110.498;2022-12-24T17:42:53;12.70;93.80
25468;DHT22;13384;24.794;110.498;2022-12-24T17:45:23;12.80;93.80
25468;DHT22;13384;24.794;110.498;2022-12-24T17:48:26;12.70;93.60
25468;DHT22;13384;24.794;110.498;2022-12-24T17:51:01;12.80;93.80
25468;DHT22;13384;24.794;110.498;2022-12-24T17:53:38;12.80;93.90
25468;DHT22;13384;24.794;110.498;2022-12-24T17:56:10;12.70;94.10
25468;DHT22;13384;24.794;110.498;2022-12-24T17:58:57;12.70;93.80
25468;DHT22;13384;24.794;110.498;2022-12-24T18:01:28;12.70;93.90
25468;DHT22;13384;24.794;110.498;2022-12-24T18:04:00;12.70;93.90
25468;DHT22;13384;24.794;110.498;2022-12-24T18:06:44;12.70;93.80
25468;DHT22;13384;24.794;110.498;2022-12-24T18:09:17;12.70;93.90
25468;DHT22;13384;24.794;110.498;2022-12-24T18:12:01;12.70;93.90
25468;DHT22;13384;24.794;110.498;2022-12-24T18:14:31;12.70;93.90
25468;DHT22;13384;24.794;110.498;2022-12-24T18:17:17;12.70;93.90
25468;DHT22;13384;24.794;110.498;2022-12-24T18:20:04;12.70;93.90
25468;DHT22;13384;24.794;110.498;2022-12-24T18:22:49;12.60;93.80
25468;DHT22;13384;24.794;110.498;2022-12-24T18:25:35;12.70;93.90
25468;DHT22;13384;24.794;110.498;2022-12-24T18:28:18;12.70;93.90
25468;DHT22;13384;24.794;110.498;2022-12-24T18:31:12;12.70;93.90